sensor_id;sensor_type;location;lat;lon;timestamp;pressure;altitude;pressure_sealevel;temperature;humidity
65359;BME280;52491;45.900;6.346;2023-04-10T00:00:05;94119.63;;;24.25;25.32
65359;BME280;52491;45.900;6.346;2023-04-10T00:02:32;94124.16;;;24.25;25.08
65359;BME280;52491;45.900;6.346;2023-04-10T00:05:00;94116.97;;;24.25;25.35
65359;BME280;52491;45.900;6.346;2023-04-10T00:07:26;94115.38;;;24.24;25.45
65359;BME280;52491;45.900;6.346;2023-04-10T00:09:52;94112.69;;;24.24;25.45
65359;BME280;52491;45.900;6.346;2023-04-10T00:12:17;94112.47;;;24.26;25.24
65359;BME280;52491;45.900;6.346;2023-04-10T00:14:43;94110.31;;;24.23;25.31
65359;BME280;52491;45.900;6.346;2023-04-10T00:17:09;94110.03;;;24.24;25.25
65359;BME280;52491;45.900;6.346;2023-04-10T00:19:34;94106.75;;;24.12;25.46
65359;BME280;52491;45.900;6.346;2023-04-10T00:22:00;94105.78;;;24.23;24.94
65359;BME280;52491;45.900;6.346;2023-04-10T00:24:26;94108.44;;;24.23;25.26
65359;BME280;52491;45.900;6.346;2023-04-10T00:26:52;94102.56;;;24.21;25.09
65359;BME280;52491;45.900;6.346;2023-04-10T00:29:17;94104.63;;;24.14;25.09
65359;BME280;52491;45.900;6.346;2023-04-10T00:31:43;94101.75;;;24.21;25.11
65359;BME280;52491;45.900;6.346;2023-04-10T00:34:08;94103.34;;;24.22;25.03
65359;BME280;52491;45.900;6.346;2023-04-10T00:36:34;94104.16;;;24.22;25.07
65359;BME280;52491;45.900;6.346;2023-04-10T00:39:00;94103.09;;;24.23;25.07
65359;BME280;52491;45.900;6.346;2023-04-10T00:41:26;94096.16;;;24.22;24.99
65359;BME280;52491;45.900;6.346;2023-04-10T00:43:56;94094.31;;;24.23;24.87
65359;BME280;52491;45.900;6.346;2023-04-10T00:46:22;94093.50;;;24.22;24.93
65359;BME280;52491;45.900;6.346;2023-04-10T00:48:49;94097.22;;;24.21;24.99
65359;BME280;52491;45.900;6.346;2023-04-10T00:51:15;94100.44;;;24.23;25.05
65359;BME280;52491;45.900;6.346;2023-04-10T00:53:41;94097.22;;;24.21;24.86
65359;BME280;52491;45.900;6.346;2023-04-10T00:56:07;94101.75;;;24.21;25.26
65359;BME280;52491;45.900;6.346;2023-04-10T00:58:32;94108.94;;;24.20;24.75
65359;BME280;52491;45.900;6.346;2023-04-10T01:00:58;94112.41;;;24.21;25.10
65359;BME280;52491;45.900;6.346;2023-04-10T01:03:24;94111.84;;;24.19;24.70
65359;BME280;52491;45.900;6.346;2023-04-10T01:14:11;94101.19;;;24.19;24.87
65359;BME280;52491;45.900;6.346;2023-04-10T01:16:57;94096.16;;;24.17;24.88
65359;BME280;52491;45.900;6.346;2023-04-10T01:19:41;94097.19;;;24.16;24.72
65359;BME280;52491;45.900;6.346;2023-04-10T01:22:13;94107.59;;;24.18;24.79
65359;BME280;52491;45.900;6.346;2023-04-10T01:30:03;94109.94;;;24.14;24.87
65359;BME280;52491;45.900;6.346;2023-04-10T01:32:32;94109.84;;;23.99;24.97
65359;BME280;52491;45.900;6.346;2023-04-10T01:35:02;94107.47;;;24.02;25.02
65359;BME280;52491;45.900;6.346;2023-04-10T01:37:31;94104.22;;;23.95;25.15
65359;BME280;52491;45.900;6.346;2023-04-10T01:40:03;94110.63;;;23.99;24.92
65359;BME280;52491;45.900;6.346;2023-04-10T01:42:40;94110.22;;;24.12;24.62
65359;BME280;52491;45.900;6.346;2023-04-10T01:45:13;94101.84;;;23.99;25.05
65359;BME280;52491;45.900;6.346;2023-04-10T01:47:41;94101.66;;;24.10;24.69
65359;BME280;52491;45.900;6.346;2023-04-10T01:50:08;94096.91;;;24.12;24.73
65359;BME280;52491;45.900;6.346;2023-04-10T01:52:36;94095.03;;;24.13;24.78
65359;BME280;52491;45.900;6.346;2023-04-10T01:55:03;94086.13;;;23.97;24.71
65359;BME280;52491;45.900;6.346;2023-04-10T01:57:30;94088.25;;;23.95;24.70
65359;BME280;52491;45.900;6.346;2023-04-10T01:59:57;94085.59;;;23.95;24.92
65359;BME280;52491;45.900;6.346;2023-04-10T02:02:22;94087.47;;;23.95;24.90
65359;BME280;52491;45.900;6.346;2023-04-10T02:04:48;94085.59;;;23.95;24.93
65359;BME280;52491;45.900;6.346;2023-04-10T02:09:59;94081.84;;;23.96;24.95
65359;BME280;52491;45.900;6.346;2023-04-10T02:12:40;94085.84;;;23.94;24.98
65359;BME280;52491;45.900;6.346;2023-04-10T02:15:08;94085.03;;;23.93;24.93
65359;BME280;52491;45.900;6.346;2023-04-10T02:17:35;94077.03;;;23.93;24.99
65359;BME280;52491;45.900;6.346;2023-04-10T02:20:03;94085.84;;;23.94;25.04
65359;BME280;52491;45.900;6.346;2023-04-10T02:22:30;94083.16;;;23.94;24.71
65359;BME280;52491;45.900;6.346;2023-04-10T02:24:56;94079.47;;;23.95;24.79
65359;BME280;52491;45.900;6.346;2023-04-10T02:27:32;94079.47;;;23.95;24.70
65359;BME280;52491;45.900;6.346;2023-04-10T02:29:58;94077.84;;;23.94;25.03
65359;BME280;52491;45.900;6.346;2023-04-10T02:32:23;94079.16;;;23.91;24.91
65359;BME280;52491;45.900;6.346;2023-04-10T02:34:49;94080.78;;;23.92;24.82
65359;BME280;52491;45.900;6.346;2023-04-10T02:37:15;94084.25;;;23.93;24.89
65359;BME280;52491;45.900;6.346;2023-04-10T02:39:41;94082.94;;;23.95;24.88
65359;BME280;52491;45.900;6.346;2023-04-10T02:42:06;94083.97;;;23.94;24.67
65359;BME280;52491;45.900;6.346;2023-04-10T02:44:32;94084.78;;;23.95;24.56
65359;BME280;52491;45.900;6.346;2023-04-10T02:46:58;94087.47;;;23.95;25.00
65359;BME280;52491;45.900;6.346;2023-04-10T02:49:23;94086.38;;;23.96;24.78
65359;BME280;52491;45.900;6.346;2023-04-10T02:51:49;94085.59;;;23.95;24.82
65359;BME280;52491;45.900;6.346;2023-04-10T02:54:14;94091.72;;;23.96;24.75
65359;BME280;52491;45.900;6.346;2023-04-10T02:56:40;94083.72;;;23.96;24.81
65359;BME280;52491;45.900;6.346;2023-04-10T02:59:06;94079.19;;;23.96;24.77
65359;BME280;52491;45.900;6.346;2023-04-10T03:01:32;94081.84;;;23.96;24.73
65359;BME280;52491;45.900;6.346;2023-04-10T03:03:58;94081.84;;;23.96;24.65
65359;BME280;52491;45.900;6.346;2023-04-10T03:06:23;94085.03;;;23.93;24.87
65359;BME280;52491;45.900;6.346;2023-04-10T03:08:52;94086.38;;;23.96;24.55
65359;BME280;52491;45.900;6.346;2023-04-10T03:11:18;94081.84;;;23.96;24.70
65359;BME280;52491;45.900;6.346;2023-04-10T03:13:43;94081.06;;;23.96;24.60
65359;BME280;52491;45.900;6.346;2023-04-10T03:16:09;94082.94;;;23.95;24.83
65359;BME280;52491;45.900;6.346;2023-04-10T03:18:35;94090.13;;;23.95;24.59
65359;BME280;52491;45.900;6.346;2023-04-10T03:21:00;94090.91;;;23.95;24.71
65359;BME280;52491;45.900;6.346;2023-04-10T03:23:26;94093.56;;;23.95;24.65
65359;BME280;52491;45.900;6.346;2023-04-10T03:25:52;94090.13;;;23.95;24.51
65359;BME280;52491;45.900;6.346;2023-04-10T03:28:19;94089.28;;;23.94;24.55
65359;BME280;52491;45.900;6.346;2023-04-10T03:30:45;94096.25;;;23.95;24.78
65359;BME280;52491;45.900;6.346;2023-04-10T03:33:11;94095.44;;;23.95;24.61
65359;BME280;52491;45.900;6.346;2023-04-10T03:35:36;94099.69;;;23.96;24.56
65359;BME280;52491;45.900;6.346;2023-04-10T03:38:02;94092.59;;;24.06;24.54
65359;BME280;52491;45.900;6.346;2023-04-10T03:40:27;94100.91;;;24.15;24.40
65359;BME280;52491;45.900;6.346;2023-04-10T03:42:53;94090.00;;;24.17;24.45
65359;BME280;52491;45.900;6.346;2023-04-10T03:45:19;94098.81;;;24.17;24.27
65359;BME280;52491;45.900;6.346;2023-04-10T03:47:45;94088.94;;;24.18;24.54
65359;BME280;52491;45.900;6.346;2023-04-10T03:50:10;94085.22;;;24.19;24.47
65359;BME280;52491;45.900;6.346;2023-04-10T03:52:36;94084.97;;;24.20;24.35
65359;BME280;52491;45.900;6.346;2023-04-10T03:55:01;94084.97;;;24.20;24.21
65359;BME280;52491;45.900;6.346;2023-04-10T03:57:27;94086.00;;;24.19;24.30
65359;BME280;52491;45.900;6.346;2023-04-10T03:59:53;94085.22;;;24.19;24.41
65359;BME280;52491;45.900;6.346;2023-04-10T04:02:18;94083.63;;;24.18;24.37
65359;BME280;52491;45.900;6.346;2023-04-10T04:04:44;94081.47;;;24.20;24.20
65359;BME280;52491;45.900;6.346;2023-04-10T04:07:09;94094.00;;;24.19;24.28
65359;BME280;52491;45.900;6.346;2023-04-10T04:09:36;94089.47;;;24.20;24.24
65359;BME280;52491;45.900;6.346;2023-04-10T04:12:02;94091.34;;;24.19;24.38
65359;BME280;52491;45.900;6.346;2023-04-10T04:14:27;94091.34;;;24.19;24.31
65359;BME280;52491;45.900;6.346;2023-04-10T04:16:53;94094.00;;;24.19;24.22
65359;BME280;52491;45.900;6.346;2023-04-10T04:19:19;94099.09;;;24.21;24.19
65359;BME280;52491;45.900;6.346;2023-04-10T04:21:45;94097.22;;;24.21;24.27
65359;BME280;52491;45.900;6.346;2023-04-10T04:24:10;94099.09;;;24.21;24.26
65359;BME280;52491;45.900;6.346;2023-04-10T04:26:36;94101.47;;;24.22;24.19
65359;BME280;52491;45.900;6.346;2023-04-10T04:29:01;94104.16;;;24.22;24.18
65359;BME280;52491;45.900;6.346;2023-04-10T04:31:27;94104.16;;;24.22;24.36
65359;BME280;52491;45.900;6.346;2023-04-10T04:34:00;94097.78;;;24.23;24.10
65359;BME280;52491;45.900;6.346;2023-04-10T04:36:26;94105.22;;;24.21;24.08
65359;BME280;52491;45.900;6.346;2023-04-10T04:38:52;94105.22;;;24.21;23.99
65359;BME280;52491;45.900;6.346;2023-04-10T04:41:18;94106.00;;;24.22;24.09
65359;BME280;52491;45.900;6.346;2023-04-10T04:43:43;94104.41;;;24.21;24.11
65359;BME280;52491;45.900;6.346;2023-04-10T04:46:10;94105.22;;;24.21;24.29
65359;BME280;52491;45.900;6.346;2023-04-10T04:48:35;94106.81;;;24.22;24.10
65359;BME280;52491;45.900;6.346;2023-04-10T04:51:01;94106.81;;;24.22;24.07
65359;BME280;52491;45.900;6.346;2023-04-10T04:53:27;94111.34;;;24.22;24.14
65359;BME280;52491;45.900;6.346;2023-04-10T04:55:52;94104.16;;;24.22;24.25
65359;BME280;52491;45.900;6.346;2023-04-10T04:58:18;94107.38;;;24.24;23.93
65359;BME280;52491;45.900;6.346;2023-04-10T05:00:44;94110.84;;;24.25;24.15
65359;BME280;52491;45.900;6.346;2023-04-10T05:03:10;94106.31;;;24.25;24.03
65359;BME280;52491;45.900;6.346;2023-04-10T05:05:36;94110.03;;;24.24;24.06
65359;BME280;52491;45.900;6.346;2023-04-10T05:08:01;94110.03;;;24.24;23.95
65359;BME280;52491;45.900;6.346;2023-04-10T05:10:27;94110.03;;;24.24;24.06
65359;BME280;52491;45.900;6.346;2023-04-10T05:12:53;94116.16;;;24.25;23.93
65359;BME280;52491;45.900;6.346;2023-04-10T05:15:18;94114.56;;;24.24;24.24
65359;BME280;52491;45.900;6.346;2023-04-10T05:17:44;94119.09;;;24.23;24.05
65359;BME280;52491;45.900;6.346;2023-04-10T05:20:10;94117.22;;;24.24;24.19
65359;BME280;52491;45.900;6.346;2023-04-10T05:22:36;94117.97;;;24.19;24.27
65359;BME280;52491;45.900;6.346;2023-04-10T05:25:01;94118.28;;;24.23;23.97
65359;BME280;52491;45.900;6.346;2023-04-10T05:27:27;94120.13;;;24.22;24.03
65359;BME280;52491;45.900;6.346;2023-04-10T05:29:52;94123.63;;;24.23;24.03
65359;BME280;52491;45.900;6.346;2023-04-10T05:32:18;94112.97;;;24.23;24.01
65359;BME280;52491;45.900;6.346;2023-04-10T05:34:44;94117.22;;;24.24;24.15
65359;BME280;52491;45.900;6.346;2023-04-10T05:37:09;94121.75;;;24.23;24.25
65359;BME280;52491;45.900;6.346;2023-04-10T05:39:37;94118.03;;;24.24;23.99
65359;BME280;52491;45.900;6.346;2023-04-10T05:42:02;94119.88;;;24.24;24.23
65359;BME280;52491;45.900;6.346;2023-04-10T05:44:29;94120.69;;;24.24;24.06
65359;BME280;52491;45.900;6.346;2023-04-10T05:46:55;94115.38;;;24.24;23.93
65359;BME280;52491;45.900;6.346;2023-04-10T05:49:20;94119.63;;;24.25;23.93
65359;BME280;52491;45.900;6.346;2023-04-10T05:51:46;94108.97;;;24.25;23.90
65359;BME280;52491;45.900;6.346;2023-04-10T05:54:15;94116.72;;;24.27;24.03
65359;BME280;52491;45.900;6.346;2023-04-10T05:56:41;94115.91;;;24.26;24.02
65359;BME280;52491;45.900;6.346;2023-04-10T05:59:06;94116.97;;;24.25;24.12
65359;BME280;52491;45.900;6.346;2023-04-10T06:01:32;94122.28;;;24.25;24.15
65359;BME280;52491;45.900;6.346;2023-04-10T06:03:58;94116.97;;;24.25;23.99
65359;BME280;52491;45.900;6.346;2023-04-10T06:06:24;94123.91;;;24.26;23.92
65359;BME280;52491;45.900;6.346;2023-04-10T06:08:51;94122.84;;;24.27;23.92
65359;BME280;52491;45.900;6.346;2023-04-10T06:11:17;94123.63;;;24.28;24.06
65359;BME280;52491;45.900;6.346;2023-04-10T06:13:42;94122.84;;;24.27;24.09
65359;BME280;52491;45.900;6.346;2023-04-10T06:16:08;94123.91;;;24.26;24.03
65359;BME280;52491;45.900;6.346;2023-04-10T06:18:34;94123.91;;;24.26;23.85
65359;BME280;52491;45.900;6.346;2023-04-10T06:21:00;94125.50;;;24.27;24.18
65359;BME280;52491;45.900;6.346;2023-04-10T06:23:27;94125.50;;;24.27;23.90
65359;BME280;52491;45.900;6.346;2023-04-10T06:25:54;94119.38;;;24.27;23.92
65359;BME280;52491;45.900;6.346;2023-04-10T06:28:19;94116.47;;;24.28;24.15
65359;BME280;52491;45.900;6.346;2023-04-10T06:30:45;94113.81;;;24.28;24.03
65359;BME280;52491;45.900;6.346;2023-04-10T06:33:10;94110.31;;;24.28;23.98
65359;BME280;52491;45.900;6.346;2023-04-10T06:35:36;94120.97;;;24.28;24.07
65359;BME280;52491;45.900;6.346;2023-04-10T06:38:02;94115.66;;;24.28;24.14
65359;BME280;52491;45.900;6.346;2023-04-10T06:40:28;94111.16;;;24.28;24.12
65359;BME280;52491;45.900;6.346;2023-04-10T06:42:55;94117.28;;;24.29;23.91
65359;BME280;52491;45.900;6.346;2023-04-10T06:45:21;94114.59;;;24.29;23.91
65359;BME280;52491;45.900;6.346;2023-04-10T06:47:46;94112.97;;;24.28;24.17
65359;BME280;52491;45.900;6.346;2023-04-10T06:50:12;94115.41;;;24.29;24.23
65359;BME280;52491;45.900;6.346;2023-04-10T06:52:37;94112.75;;;24.29;23.92
65359;BME280;52491;45.900;6.346;2023-04-10T06:55:03;94113.53;;;24.30;24.23
65359;BME280;52491;45.900;6.346;2023-04-10T06:57:29;94112.75;;;24.29;24.28
65359;BME280;52491;45.900;6.346;2023-04-10T06:59:55;94109.28;;;24.29;24.23
65359;BME280;52491;45.900;6.346;2023-04-10T07:02:21;94113.53;;;24.30;24.24
65359;BME280;52491;45.900;6.346;2023-04-10T07:04:49;94104.47;;;24.31;24.10
65359;BME280;52491;45.900;6.346;2023-04-10T07:07:15;94107.13;;;24.31;24.34
65359;BME280;52491;45.900;6.346;2023-04-10T07:09:40;94111.16;;;24.33;24.01
65359;BME280;52491;45.900;6.346;2023-04-10T07:12:06;94111.97;;;24.34;24.37
65359;BME280;52491;45.900;6.346;2023-04-10T07:14:33;94109.31;;;24.34;24.07
65359;BME280;52491;45.900;6.346;2023-04-10T07:16:59;94107.44;;;24.34;24.45
65359;BME280;52491;45.900;6.346;2023-04-10T07:19:25;94105.88;;;24.39;24.26
65359;BME280;52491;45.900;6.346;2023-04-10T07:21:51;94112.00;;;24.39;24.39
65359;BME280;52491;45.900;6.346;2023-04-10T07:24:17;94110.69;;;24.42;24.49
65359;BME280;52491;45.900;6.346;2023-04-10T07:26:43;94113.94;;;24.44;24.60
65359;BME280;52491;45.900;6.346;2023-04-10T07:29:09;94112.84;;;24.45;24.36
65359;BME280;52491;45.900;6.346;2023-04-10T07:31:35;94108.34;;;24.45;24.43
65359;BME280;52491;45.900;6.346;2023-04-10T07:34:01;94114.22;;;24.47;24.40
65359;BME280;52491;45.900;6.346;2023-04-10T07:36:27;94107.03;;;24.48;24.58
65359;BME280;52491;45.900;6.346;2023-04-10T07:38:53;94119.03;;;24.50;24.56
65359;BME280;52491;45.900;6.346;2023-04-10T07:41:19;94114.75;;;24.49;24.80
65359;BME280;52491;45.900;6.346;2023-04-10T07:43:44;94115.56;;;24.50;24.56
65359;BME280;52491;45.900;6.346;2023-04-10T07:46:11;94120.66;;;24.51;24.77
65359;BME280;52491;45.900;6.346;2023-04-10T07:48:36;94110.50;;;24.48;24.78
65359;BME280;52491;45.900;6.346;2023-04-10T07:51:03;94120.66;;;24.51;24.69
65359;BME280;52491;45.900;6.346;2023-04-10T07:53:29;94116.13;;;24.52;24.97
65359;BME280;52491;45.900;6.346;2023-04-10T07:55:55;94117.72;;;24.53;24.66
65359;BME280;52491;45.900;6.346;2023-04-10T07:58:21;94116.66;;;24.54;24.94
65359;BME280;52491;45.900;6.346;2023-04-10T08:00:48;94113.19;;;24.53;24.92
65359;BME280;52491;45.900;6.346;2023-04-10T08:03:14;94112.38;;;24.53;25.19
65359;BME280;52491;45.900;6.346;2023-04-10T08:05:40;94109.72;;;24.53;25.21
65359;BME280;52491;45.900;6.346;2023-04-10T08:08:08;94109.19;;;24.51;25.33
65359;BME280;52491;45.900;6.346;2023-04-10T08:10:36;94109.72;;;24.53;25.74
65359;BME280;52491;45.900;6.346;2023-04-10T08:13:03;94106.81;;;24.54;25.63
65359;BME280;52491;45.900;6.346;2023-04-10T08:15:30;94108.66;;;24.54;25.62
65359;BME280;52491;45.900;6.346;2023-04-10T08:17:57;94107.59;;;24.55;25.44
65359;BME280;52491;45.900;6.346;2023-04-10T08:20:23;94093.19;;;24.56;25.47
65359;BME280;52491;45.900;6.346;2023-04-10T08:22:49;94091.59;;;24.55;25.54
65359;BME280;52491;45.900;6.346;2023-04-10T08:25:16;94093.19;;;24.56;25.68
65359;BME280;52491;45.900;6.346;2023-04-10T08:27:42;94086.28;;;24.55;25.67
65359;BME280;52491;45.900;6.346;2023-04-10T08:30:08;94096.66;;;24.51;26.27
65359;BME280;52491;45.900;6.346;2023-04-10T08:32:34;94097.69;;;24.50;26.22
65359;BME280;52491;45.900;6.346;2023-04-10T08:35:04;94099.31;;;24.51;26.11
65359;BME280;52491;45.900;6.346;2023-04-10T08:37:31;94091.06;;;24.53;26.06
65359;BME280;52491;45.900;6.346;2023-04-10T08:39:57;94091.88;;;24.53;26.23
65359;BME280;52491;45.900;6.346;2023-04-10T08:42:24;94086.53;;;24.53;26.39
65359;BME280;52491;45.900;6.346;2023-04-10T08:44:51;94086.53;;;24.53;26.63
65359;BME280;52491;45.900;6.346;2023-04-10T08:47:20;94088.94;;;24.55;26.35
65359;BME280;52491;45.900;6.346;2023-04-10T08:49:56;94079.88;;;24.56;26.76
65359;BME280;52491;45.900;6.346;2023-04-10T08:52:25;94080.94;;;24.55;26.86
65359;BME280;52491;45.900;6.346;2023-04-10T08:54:54;94085.19;;;24.56;27.05
65359;BME280;52491;45.900;6.346;2023-04-10T08:57:20;94073.50;;;24.57;27.21
65359;BME280;52491;45.900;6.346;2023-04-10T08:59:48;94084.16;;;24.57;27.12
65359;BME280;52491;45.900;6.346;2023-04-10T09:02:14;94086.81;;;24.57;27.05
65359;BME280;52491;45.900;6.346;2023-04-10T09:04:53;94080.44;;;24.58;26.70
65359;BME280;52491;45.900;6.346;2023-04-10T09:07:20;94086.03;;;24.62;26.13
65359;BME280;52491;45.900;6.346;2023-04-10T09:09:47;94086.84;;;24.62;25.31
65359;BME280;52491;45.900;6.346;2023-04-10T09:12:13;94083.63;;;24.60;24.94
65359;BME280;52491;45.900;6.346;2023-04-10T09:14:40;94084.19;;;24.62;24.91
65359;BME280;52491;45.900;6.346;2023-04-10T09:17:20;94072.47;;;24.63;24.44
65359;BME280;52491;45.900;6.346;2023-04-10T09:19:53;94073.25;;;24.64;24.37
65359;BME280;52491;45.900;6.346;2023-04-10T09:22:32;94078.03;;;24.62;23.86
65359;BME280;52491;45.900;6.346;2023-04-10T09:25:00;94073.78;;;24.61;24.32
65359;BME280;52491;45.900;6.346;2023-04-10T09:27:28;94071.38;;;24.64;24.27
65359;BME280;52491;45.900;6.346;2023-04-10T09:29:56;94079.91;;;24.61;23.39
65359;BME280;52491;45.900;6.346;2023-04-10T09:35:04;94075.16;;;24.26;22.80
65359;BME280;52491;45.900;6.346;2023-04-10T09:37:31;94066.84;;;24.17;22.58
65359;BME280;52491;45.900;6.346;2023-04-10T09:39:57;94060.41;;;24.13;22.72
65359;BME280;52491;45.900;6.346;2023-04-10T09:42:36;94059.88;;;24.16;22.60
65359;BME280;52491;45.900;6.346;2023-04-10T09:45:02;94057.53;;;24.25;23.06
65359;BME280;52491;45.900;6.346;2023-04-10T09:47:29;94056.50;;;24.31;23.24
65359;BME280;52491;45.900;6.346;2023-04-10T09:49:59;94052.84;;;24.37;23.23
65359;BME280;52491;45.900;6.346;2023-04-10T09:52:33;94045.38;;;24.39;23.65
65359;BME280;52491;45.900;6.346;2023-04-10T09:55:01;94056.34;;;24.43;23.93
65359;BME280;52491;45.900;6.346;2023-04-10T09:57:29;94045.97;;;24.46;24.05
65359;BME280;52491;45.900;6.346;2023-04-10T09:59:57;94043.88;;;24.48;24.06
65359;BME280;52491;45.900;6.346;2023-04-10T10:02:25;94039.34;;;24.49;24.15
65359;BME280;52491;45.900;6.346;2023-04-10T10:04:53;94042.56;;;24.51;24.12
65359;BME280;52491;45.900;6.346;2023-04-10T10:07:20;94038.03;;;24.51;24.24
65359;BME280;52491;45.900;6.346;2023-04-10T10:09:48;94039.63;;;24.52;24.31
65359;BME280;52491;45.900;6.346;2023-04-10T10:12:35;94027.91;;;24.53;24.42
65359;BME280;52491;45.900;6.346;2023-04-10T10:15:16;94027.09;;;24.53;24.66
65359;BME280;52491;45.900;6.346;2023-04-10T10:20:30;94029.75;;;24.53;24.88
65359;BME280;52491;45.900;6.346;2023-04-10T10:22:57;94038.56;;;24.53;24.83
65359;BME280;52491;45.900;6.346;2023-04-10T10:25:23;94025.25;;;24.53;24.84
65359;BME280;52491;45.900;6.346;2023-04-10T10:27:51;94024.97;;;24.55;25.28
65359;BME280;52491;45.900;6.346;2023-04-10T10:30:19;94026.56;;;24.56;25.15
65359;BME280;52491;45.900;6.346;2023-04-10T10:32:45;94022.06;;;24.56;25.32
65359;BME280;52491;45.900;6.346;2023-04-10T10:35:13;94021.53;;;24.60;25.46
65359;BME280;52491;45.900;6.346;2023-04-10T10:37:39;94023.91;;;24.61;25.27
65359;BME280;52491;45.900;6.346;2023-04-10T10:40:16;94018.59;;;24.61;25.04
65359;BME280;52491;45.900;6.346;2023-04-10T10:46:08;94022.06;;;24.62;25.25
65359;BME280;52491;45.900;6.346;2023-04-10T10:48:36;94022.88;;;24.62;24.65
65359;BME280;52491;45.900;6.346;2023-04-10T10:51:02;94027.13;;;24.63;24.41
65359;BME280;52491;45.900;6.346;2023-04-10T10:53:39;94022.34;;;24.65;24.36
65359;BME280;52491;45.900;6.346;2023-04-10T10:58:50;94019.97;;;24.69;24.27
65359;BME280;52491;45.900;6.346;2023-04-10T11:01:16;94022.38;;;24.70;24.26
65359;BME280;52491;45.900;6.346;2023-04-10T11:03:42;94015.97;;;24.71;24.15
65359;BME280;52491;45.900;6.346;2023-04-10T11:06:16;94014.91;;;24.72;24.31
65359;BME280;52491;45.900;6.346;2023-04-10T11:08:52;94012.78;;;24.74;24.30
65359;BME280;52491;45.900;6.346;2023-04-10T11:11:22;94015.44;;;24.74;24.50
65359;BME280;52491;45.900;6.346;2023-04-10T11:21:19;94011.72;;;24.75;24.14
65359;BME280;52491;45.900;6.346;2023-04-10T11:29:02;94020.25;;;24.77;24.06
65359;BME280;52491;45.900;6.346;2023-04-10T11:31:28;94017.34;;;24.79;23.84
65359;BME280;52491;45.900;6.346;2023-04-10T11:34:01;94017.06;;;24.81;23.89
65359;BME280;52491;45.900;6.346;2023-04-10T11:36:26;94023.19;;;24.81;24.16
65359;BME280;52491;45.900;6.346;2023-04-10T11:38:53;94018.94;;;24.80;23.85
65359;BME280;52491;45.900;6.346;2023-04-10T11:41:20;94039.19;;;24.81;23.71
65359;BME280;52491;45.900;6.346;2023-04-10T11:43:50;94043.72;;;24.81;23.82
65359;BME280;52491;45.900;6.346;2023-04-10T11:46:16;94044.81;;;24.79;23.97
65359;BME280;52491;45.900;6.346;2023-04-10T11:48:42;94049.06;;;24.81;24.01
65359;BME280;52491;45.900;6.346;2023-04-10T11:51:10;94052.53;;;24.81;23.95
65359;BME280;52491;45.900;6.346;2023-04-10T11:53:37;94058.69;;;24.82;23.93
65359;BME280;52491;45.900;6.346;2023-04-10T11:56:04;94052.53;;;24.81;22.77
65359;BME280;52491;45.900;6.346;2023-04-10T11:58:32;94036.81;;;24.79;22.25
65359;BME280;52491;45.900;6.346;2023-04-10T12:01:03;94036.81;;;24.79;22.01
65359;BME280;52491;45.900;6.346;2023-04-10T12:03:41;94029.84;;;24.78;21.83
65359;BME280;52491;45.900;6.346;2023-04-10T12:06:12;94032.53;;;24.78;21.58
65359;BME280;52491;45.900;6.346;2023-04-10T12:08:41;94034.66;;;24.76;21.79
65359;BME280;52491;45.900;6.346;2023-04-10T12:11:09;94034.38;;;24.78;22.26
65359;BME280;52491;45.900;6.346;2023-04-10T12:13:36;94029.84;;;24.78;22.53
65359;BME280;52491;45.900;6.346;2023-04-10T12:16:07;94027.19;;;24.78;22.51
65359;BME280;52491;45.900;6.346;2023-04-10T12:18:35;94029.06;;;24.78;22.81
65359;BME280;52491;45.900;6.346;2023-04-10T12:21:04;94024.00;;;24.76;22.68
65359;BME280;52491;45.900;6.346;2023-04-10T12:23:32;94038.13;;;24.77;22.76
65359;BME280;52491;45.900;6.346;2023-04-10T12:28:33;94045.56;;;24.75;22.95
65359;BME280;52491;45.900;6.346;2023-04-10T12:31:00;94045.56;;;24.75;23.03
65359;BME280;52491;45.900;6.346;2023-04-10T12:33:28;94041.31;;;24.74;22.86
65359;BME280;52491;45.900;6.346;2023-04-10T12:35:55;94043.19;;;24.73;22.69
65359;BME280;52491;45.900;6.346;2023-04-10T12:38:35;94045.03;;;24.73;22.87
65359;BME280;52491;45.900;6.346;2023-04-10T12:41:02;94039.69;;;24.73;22.76
65359;BME280;52491;45.900;6.346;2023-04-10T12:43:34;94036.78;;;24.74;22.86
65359;BME280;52491;45.900;6.346;2023-04-10T12:46:01;94048.53;;;24.73;23.12
65359;BME280;52491;45.900;6.346;2023-04-10T12:48:27;94036.78;;;24.74;23.39
65359;BME280;52491;45.900;6.346;2023-04-10T12:50:53;94031.19;;;24.76;22.91
65359;BME280;52491;45.900;6.346;2023-04-10T12:53:19;94029.59;;;24.80;22.84
65359;BME280;52491;45.900;6.346;2023-04-10T12:56:05;94037.34;;;24.82;23.15
65359;BME280;52491;45.900;6.346;2023-04-10T12:58:31;94038.94;;;24.83;22.96
65359;BME280;52491;45.900;6.346;2023-04-10T13:01:01;94028.53;;;24.81;23.43
65359;BME280;52491;45.900;6.346;2023-04-10T13:03:27;94033.06;;;24.81;23.55
65359;BME280;52491;45.900;6.346;2023-04-10T13:05:52;94031.75;;;24.83;23.54
65359;BME280;52491;45.900;6.346;2023-04-10T13:08:19;94026.41;;;24.83;23.04
65359;BME280;52491;45.900;6.346;2023-04-10T13:10:45;94021.88;;;24.84;22.65
65359;BME280;52491;45.900;6.346;2023-04-10T13:13:11;94024.53;;;24.84;22.84
65359;BME280;52491;45.900;6.346;2023-04-10T13:15:37;94021.88;;;24.84;23.15
65359;BME280;52491;45.900;6.346;2023-04-10T13:18:03;94011.22;;;24.84;23.53
65359;BME280;52491;45.900;6.346;2023-04-10T13:20:32;94010.41;;;24.83;23.75
65359;BME280;52491;45.900;6.346;2023-04-10T13:22:58;94008.28;;;24.85;23.59
65359;BME280;52491;45.900;6.346;2023-04-10T13:25:24;94009.09;;;24.86;24.13
65359;BME280;52491;45.900;6.346;2023-04-10T13:27:52;94002.97;;;24.85;24.32
65359;BME280;52491;45.900;6.346;2023-04-10T13:30:18;93993.09;;;24.86;24.44
65359;BME280;52491;45.900;6.346;2023-04-10T13:32:43;93992.53;;;24.84;24.48
65359;BME280;52491;45.900;6.346;2023-04-10T13:35:10;93993.34;;;24.84;24.63
65359;BME280;52491;45.900;6.346;2023-04-10T13:37:36;93996.84;;;24.85;25.02
65359;BME280;52491;45.900;6.346;2023-04-10T13:40:02;93996.00;;;24.84;25.09
65359;BME280;52491;45.900;6.346;2023-04-10T13:42:29;94005.34;;;24.87;25.08